createdAt,value
2023-03-06T00:01:07.968Z,100182.13
2023-03-06T00:03:36.001Z,100182.11
2023-03-06T00:06:04.253Z,100180.11
2023-03-06T00:08:32.200Z,100184.30
2023-03-06T00:11:00.850Z,100183.14
2023-03-06T00:13:30.763Z,100181.05
2023-03-06T00:16:00.599Z,100179.98
2023-03-06T00:18:28.703Z,100177.97
2023-03-06T00:20:56.606Z,100178.36
2023-03-06T00:23:24.641Z,100175.60
2023-03-06T00:25:52.595Z,100179.38
2023-03-06T00:28:20.536Z,100178.32
2023-03-06T00:30:49.104Z,100173.31
2023-03-06T00:33:17.020Z,100174.19
2023-03-06T00:35:45.188Z,100177.00
2023-03-06T00:38:13.305Z,100176.69
2023-03-06T00:40:41.227Z,100177.10
2023-03-06T00:43:09.338Z,100175.01
2023-03-06T00:45:37.437Z,100171.84
2023-03-06T00:48:05.856Z,100172.17
2023-03-06T00:50:35.755Z,100172.71
2023-03-06T00:53:04.498Z,100167.69
2023-03-06T00:55:33.631Z,100166.08
2023-03-06T00:58:01.829Z,100167.55
2023-03-06T01:00:29.804Z,100164.66
2023-03-06T01:02:57.820Z,100163.52
2023-03-06T01:05:25.870Z,100159.75
2023-03-06T01:07:53.872Z,100156.89
2023-03-06T01:10:21.910Z,100155.48
2023-03-06T01:12:49.825Z,100154.17
2023-03-06T01:15:19.804Z,100150.69
2023-03-06T01:17:47.860Z,100148.91
2023-03-06T01:20:16.880Z,100148.45
2023-03-06T01:22:45.009Z,100146.65
2023-03-06T01:25:13.404Z,100146.45
2023-03-06T01:27:41.488Z,100146.67
2023-03-06T01:30:12.445Z,100147.16
2023-03-06T01:32:40.693Z,100144.32
2023-03-06T01:35:09.296Z,100147.80
2023-03-06T01:37:37.387Z,100149.63
2023-03-06T01:40:06.265Z,100149.55
2023-03-06T01:42:34.490Z,100145.51
2023-03-06T01:45:11.479Z,100143.23
2023-03-06T01:47:39.452Z,100142.38
2023-03-06T01:50:08.541Z,100142.92
2023-03-06T01:52:44.806Z,100143.28
2023-03-06T01:55:15.248Z,100137.23
2023-03-06T01:57:45.376Z,100137.80
2023-03-06T02:00:15.609Z,100136.63
2023-03-06T02:02:51.933Z,100133.52
2023-03-06T02:05:20.136Z,100130.83
2023-03-06T02:07:48.255Z,100129.68
2023-03-06T02:10:16.404Z,100125.31
2023-03-06T02:12:45.577Z,100120.57
2023-03-06T02:15:14.858Z,100123.66
2023-03-06T02:17:44.367Z,100120.53
2023-03-06T02:20:14.602Z,100120.14
2023-03-06T02:22:50.232Z,100119.48
2023-03-06T02:25:37.958Z,100118.77
2023-03-06T02:28:07.290Z,100120.50
2023-03-06T02:30:35.560Z,100115.53
2023-03-06T02:33:04.126Z,100109.70
2023-03-06T02:35:35.517Z,100106.89
2023-03-06T02:38:06.554Z,100112.20
2023-03-06T02:40:36.946Z,100114.39
2023-03-06T02:43:05.427Z,100112.10
2023-03-06T02:45:40.939Z,100112.13
2023-03-06T02:48:09.986Z,100111.58
2023-03-06T02:50:38.226Z,100112.11
2023-03-06T02:53:06.717Z,100109.08
2023-03-06T02:55:35.088Z,100106.52
2023-03-06T02:58:03.508Z,100107.42
2023-03-06T03:00:32.174Z,100108.35
2023-03-06T03:03:02.578Z,100108.37
2023-03-06T03:05:31.603Z,100105.09
2023-03-06T03:08:06.006Z,100102.10
2023-03-06T03:10:34.603Z,100107.95
2023-03-06T03:13:02.672Z,100103.21
2023-03-06T03:15:31.031Z,100104.31
2023-03-06T03:17:59.042Z,100102.61
2023-03-06T03:20:27.021Z,100103.94
2023-03-06T03:22:56.036Z,100101.42
2023-03-06T03:25:25.215Z,100100.17
2023-03-06T03:27:54.722Z,100099.05
2023-03-06T03:30:23.211Z,100100.14
2023-03-06T03:32:51.217Z,100096.73
2023-03-06T03:35:19.195Z,100096.70
2023-03-06T03:37:47.682Z,100090.41
2023-03-06T03:40:15.855Z,100090.81
2023-03-06T03:42:43.876Z,100089.39
2023-03-06T03:45:12.345Z,100087.33
2023-03-06T03:47:41.768Z,100081.55
2023-03-06T03:50:10.766Z,100079.38
2023-03-06T03:52:38.943Z,100076.68
2023-03-06T03:55:07.798Z,100080.44
2023-03-06T03:57:35.890Z,100079.55
2023-03-06T04:00:04.215Z,100080.95
2023-03-06T04:02:50.934Z,100080.07
2023-03-06T04:05:28.108Z,100081.36
2023-03-06T04:07:56.384Z,100079.29
2023-03-06T04:10:24.364Z,100079.46
2023-03-06T04:12:52.759Z,100074.04
2023-03-06T04:15:21.010Z,100070.24
2023-03-06T04:17:49.331Z,100071.69
2023-03-06T04:20:19.791Z,100077.52
2023-03-06T04:22:48.083Z,100077.46
2023-03-06T04:25:16.633Z,100078.35
2023-03-06T04:27:44.921Z,100073.55
2023-03-06T04:30:13.443Z,100067.91
2023-03-06T04:32:41.949Z,100068.31
2023-03-06T04:35:10.750Z,100068.97
2023-03-06T04:37:45.178Z,100066.40
2023-03-06T04:40:28.324Z,100062.25
2023-03-06T04:42:57.632Z,100062.31
2023-03-06T04:45:26.647Z,100060.30
2023-03-06T04:47:54.896Z,100055.04
2023-03-06T04:50:23.259Z,100055.14
2023-03-06T04:52:51.761Z,100052.58
2023-03-06T04:55:19.950Z,100050.98
2023-03-06T04:57:47.920Z,100053.25
2023-03-06T05:00:22.878Z,100051.55
2023-03-06T05:02:51.088Z,100048.21
2023-03-06T05:05:19.276Z,100053.29
2023-03-06T05:07:47.275Z,100050.46
2023-03-06T05:10:16.708Z,100044.26
2023-03-06T05:12:44.672Z,100046.56
2023-03-06T05:15:12.932Z,100041.58
2023-03-06T05:17:41.176Z,100041.73
2023-03-06T05:20:09.973Z,100040.69
2023-03-06T05:22:37.966Z,100038.64
2023-03-06T05:25:06.632Z,100035.16
2023-03-06T05:27:34.766Z,100031.56
2023-03-06T05:30:02.766Z,100030.41
2023-03-06T05:32:30.923Z,100028.09
2023-03-06T05:35:01.026Z,100033.27
2023-03-06T05:37:29.070Z,100030.70
2023-03-06T05:39:57.364Z,100026.20
2023-03-06T05:42:27.542Z,100019.83
2023-03-06T05:44:56.773Z,100021.34
2023-03-06T05:47:24.857Z,100018.73
2023-03-06T05:49:52.778Z,100018.44
2023-03-06T05:52:20.929Z,100017.25
2023-03-06T05:54:53.403Z,100018.44
2023-03-06T05:57:22.788Z,100019.70
2023-03-06T05:59:51.327Z,100022.61
2023-03-06T06:02:19.542Z,100018.66
2023-03-06T06:04:47.837Z,100013.81
2023-03-06T06:07:16.184Z,100013.68
2023-03-06T06:09:45.815Z,100014.78
2023-03-06T06:12:13.974Z,100010.45
2023-03-06T06:14:42.037Z,100010.64
2023-03-06T06:17:12.753Z,100009.48
2023-03-06T06:19:42.225Z,100011.31
2023-03-06T06:22:10.208Z,100014.56
2023-03-06T06:24:38.216Z,100011.14
2023-03-06T06:27:06.374Z,100011.91
2023-03-06T06:29:36.015Z,100014.63
2023-03-06T06:32:04.280Z,100017.52
2023-03-06T06:34:32.327Z,100013.45
2023-03-06T06:37:00.264Z,100011.60
2023-03-06T06:39:29.629Z,100012.59
2023-03-06T06:42:16.085Z,100013.52
2023-03-06T06:44:45.516Z,100019.12
2023-03-06T06:47:28.911Z,100018.88
2023-03-06T06:49:57.160Z,100022.32
2023-03-06T06:52:26.684Z,100019.81
2023-03-06T06:54:54.858Z,100013.38
2023-03-06T06:57:22.894Z,100011.77
2023-03-06T06:59:53.352Z,100009.95
2023-03-06T07:02:22.012Z,100004.69
2023-03-06T07:05:03.039Z,100006.63
2023-03-06T07:07:36.687Z,100005.17
2023-03-06T07:10:07.949Z,100004.36
2023-03-06T07:12:36.053Z,99999.38
2023-03-06T07:15:05.407Z,100002.02
2023-03-06T07:17:35.156Z,99997.98
2023-03-06T07:20:05.025Z,99996.24
2023-03-06T07:22:41.572Z,99997.23
2023-03-06T07:25:16.706Z,99993.45
2023-03-06T07:27:51.107Z,99989.91
2023-03-06T07:30:22.664Z,99992.63
2023-03-06T07:32:55.764Z,99998.83
2023-03-06T07:35:23.967Z,99998.11
2023-03-06T07:37:52.436Z,99993.70
2023-03-06T07:40:20.927Z,99999.80
2023-03-06T07:42:49.323Z,99998.04
2023-03-06T07:45:20.162Z,99999.13
2023-03-06T07:47:50.476Z,99998.34
2023-03-06T07:50:19.021Z,100001.26
2023-03-06T07:52:48.112Z,100000.30
2023-03-06T07:55:16.186Z,99997.57
2023-03-06T07:57:44.882Z,99996.02
2023-03-06T08:00:15.017Z,99999.05
2023-03-06T08:02:43.425Z,99998.37
2023-03-06T08:05:13.876Z,99995.12
2023-03-06T08:07:43.224Z,99994.23
2023-03-06T08:10:15.626Z,99989.27
2023-03-06T08:12:43.749Z,99988.61
2023-03-06T08:15:12.435Z,99986.10
2023-03-06T08:17:40.646Z,99982.61
2023-03-06T08:20:10.770Z,99975.79
2023-03-06T08:22:38.901Z,99976.13
2023-03-06T08:25:07.433Z,99971.71
2023-03-06T08:27:35.580Z,99971.73
2023-03-06T08:30:05.939Z,99969.67
2023-03-06T08:32:37.315Z,99971.29
2023-03-06T08:35:05.675Z,99969.20
2023-03-06T08:37:33.725Z,99968.43
2023-03-06T08:40:04.785Z,99966.71
2023-03-06T08:42:33.138Z,99969.34
2023-03-06T08:45:01.154Z,99970.53
2023-03-06T08:47:29.228Z,99971.06
2023-03-06T08:50:00.523Z,99976.80
2023-03-06T08:52:28.850Z,99981.27
2023-03-06T08:54:58.131Z,99980.25
2023-03-06T08:57:26.362Z,99975.33
2023-03-06T08:59:54.438Z,99974.61
2023-03-06T09:02:22.587Z,99970.52
2023-03-06T09:04:50.783Z,99963.98
2023-03-06T09:07:18.793Z,99965.73
2023-03-06T09:09:46.844Z,99967.07
2023-03-06T09:12:14.817Z,99963.20
2023-03-06T09:14:42.791Z,99962.77
2023-03-06T09:17:10.794Z,99965.80
2023-03-06T09:19:38.888Z,99971.27
2023-03-06T09:22:06.951Z,99973.36
2023-03-06T09:24:35.189Z,99970.30
2023-03-06T09:27:03.440Z,99974.09
2023-03-06T09:29:31.472Z,99970.19
2023-03-06T09:31:59.437Z,99973.81
2023-03-06T09:34:27.827Z,99976.55
2023-03-06T09:36:57.676Z,99971.60
2023-03-06T09:39:26.478Z,99971.21
2023-03-06T09:41:55.292Z,99972.80
2023-03-06T09:44:32.785Z,99973.15
2023-03-06T09:47:24.116Z,99973.27
2023-03-06T09:49:58.636Z,99972.93
2023-03-06T09:52:41.486Z,99971.07
2023-03-06T09:55:13.066Z,99966.68
2023-03-06T09:58:07.161Z,99964.67
2023-03-06T10:01:25.304Z,99963.95
2023-03-06T10:04:05.273Z,99964.33
2023-03-06T10:06:53.425Z,99964.49
2023-03-06T10:09:47.468Z,99960.36
2023-03-06T10:12:25.876Z,99963.23
2023-03-06T10:15:08.528Z,99963.09
2023-03-06T10:17:37.971Z,99968.21
2023-03-06T10:20:23.150Z,99969.17
2023-03-06T10:23:26.619Z,99962.33
2023-03-06T10:26:00.206Z,99962.79
2023-03-06T10:28:36.377Z,99963.46
2023-03-06T10:31:24.113Z,99964.16
2023-03-06T10:33:59.363Z,99957.48
2023-03-06T10:36:28.413Z,99956.77
2023-03-06T10:38:57.727Z,99956.44
2023-03-06T10:41:28.187Z,99953.98
2023-03-06T10:44:05.489Z,99952.94
2023-03-06T10:46:34.622Z,99950.48
2023-03-06T10:49:06.340Z,99950.68
2023-03-06T10:51:35.895Z,99948.52
2023-03-06T10:54:21.853Z,99945.90
2023-03-06T10:56:49.822Z,99939.86
2023-03-06T10:59:29.503Z,99938.59
2023-03-06T11:01:59.156Z,99942.67
2023-03-06T11:04:31.913Z,99940.41
2023-03-06T11:07:21.993Z,99934.83
2023-03-06T11:09:59.354Z,99932.13
2023-03-06T11:12:29.288Z,99927.90
2023-03-06T11:15:17.946Z,99927.50
2023-03-06T11:18:04.383Z,99922.52
2023-03-06T11:20:49.917Z,99918.85
2023-03-06T11:23:38.604Z,99915.84
2023-03-06T11:26:16.018Z,99916.31
2023-03-06T11:29:02.423Z,99911.38
2023-03-06T11:31:38.632Z,99909.54
2023-03-06T11:34:12.766Z,99906.14
2023-03-06T11:36:52.093Z,99903.25
2023-03-06T11:39:38.377Z,99904.08
2023-03-06T11:42:09.208Z,99902.34
2023-03-06T11:44:52.299Z,99900.69
2023-03-06T11:47:29.732Z,99898.82
2023-03-06T11:50:07.066Z,99897.34
2023-03-06T11:52:51.198Z,99893.91
2023-03-06T11:55:50.377Z,99894.34
2023-03-06T11:58:40.364Z,99894.27
2023-03-06T12:01:33.014Z,99889.41
2023-03-06T12:04:11.973Z,99889.45
2023-03-06T12:06:51.903Z,99889.81
2023-03-06T12:09:27.655Z,99892.20
2023-03-06T12:11:55.639Z,99892.30
2023-03-06T12:14:36.477Z,99895.55
2023-03-06T12:17:15.604Z,99889.63
2023-03-06T12:19:50.437Z,99890.92
2023-03-06T12:23:15.456Z,99891.30
2023-03-06T12:25:49.147Z,99887.29
2023-03-06T12:28:50.501Z,99888.70
2023-03-06T12:31:43.094Z,99888.94
2023-03-06T12:34:20.239Z,99890.15
2023-03-06T12:37:09.650Z,99886.98
2023-03-06T12:39:47.405Z,99890.23
2023-03-06T12:42:38.825Z,99888.41
2023-03-06T12:45:34.148Z,99887.16
2023-03-06T12:48:02.188Z,99884.73
2023-03-06T12:50:31.536Z,99885.35
2023-03-06T12:53:13.613Z,99885.08
2023-03-06T12:55:44.250Z,99882.98
2023-03-06T12:58:30.946Z,99883.52
2023-03-06T13:01:11.488Z,99888.11
2023-03-06T13:04:18.249Z,99885.73
2023-03-06T13:06:58.365Z,99884.21
2023-03-06T13:09:29.418Z,99884.30
2023-03-06T13:12:30.051Z,99886.94
2023-03-06T13:15:01.603Z,99886.20
2023-03-06T13:17:34.752Z,99889.84
2023-03-06T13:20:14.817Z,99886.46
2023-03-06T13:22:43.796Z,99889.83
2023-03-06T13:25:21.118Z,99888.48
2023-03-06T13:27:55.179Z,99888.80
2023-03-06T13:30:42.529Z,99886.85
2023-03-06T13:33:33.179Z,99888.98
2023-03-06T13:36:23.307Z,99888.88
2023-03-06T13:38:51.786Z,99884.48
2023-03-06T13:41:22.769Z,99886.40
2023-03-06T13:43:52.393Z,99882.38
2023-03-06T13:46:26.244Z,99882.30
2023-03-06T13:49:09.573Z,99881.16
2023-03-06T13:52:04.545Z,99879.27
2023-03-06T13:54:32.527Z,99882.10
2023-03-06T13:57:38.312Z,99879.06
2023-03-06T14:00:30.328Z,99881.98
2023-03-06T14:03:25.398Z,99881.71
2023-03-06T14:05:53.497Z,99879.61
2023-03-06T14:08:30.982Z,99879.82
2023-03-06T14:11:03.203Z,99881.81
2023-03-06T14:13:46.634Z,99877.34
2023-03-06T14:16:27.016Z,99880.28
2023-03-06T14:18:57.034Z,99879.79
2023-03-06T14:21:35.513Z,99879.48
2023-03-06T14:24:04.468Z,99880.30
2023-03-06T14:26:34.078Z,99880.20
2023-03-06T14:29:03.132Z,99876.80
2023-03-06T14:31:37.611Z,99878.49
2023-03-06T14:34:09.247Z,99877.66
2023-03-06T14:36:43.588Z,99879.48
2023-03-06T14:39:23.447Z,99878.06
2023-03-06T14:41:51.555Z,99877.91
2023-03-06T14:44:24.352Z,99876.96
2023-03-06T14:46:56.269Z,99875.96
2023-03-06T14:49:25.641Z,99877.61
2023-03-06T14:51:55.567Z,99874.62
2023-03-06T14:54:31.851Z,99874.36
2023-03-06T14:57:06.844Z,99874.33
2023-03-06T14:59:44.789Z,99874.48
2023-03-06T15:02:17.914Z,99878.09
2023-03-06T15:04:47.874Z,99876.22
2023-03-06T15:07:17.985Z,99875.32
2023-03-06T15:09:48.982Z,99876.54
2023-03-06T15:12:19.996Z,99874.81
2023-03-06T15:14:59.305Z,99870.44
2023-03-06T15:17:27.252Z,99870.60
2023-03-06T15:19:56.846Z,99873.64
2023-03-06T15:22:31.988Z,99869.96
2023-03-06T15:25:27.951Z,99869.04
2023-03-06T15:28:03.383Z,99867.23
2023-03-06T15:30:33.694Z,99862.64
2023-03-06T15:33:20.003Z,99865.60
2023-03-06T15:36:04.219Z,99868.70
2023-03-06T15:38:40.127Z,99866.23
2023-03-06T15:41:23.964Z,99862.94
2023-03-06T15:43:52.046Z,99864.42
2023-03-06T15:46:20.140Z,99865.40
2023-03-06T15:49:07.323Z,99871.41
2023-03-06T15:51:35.512Z,99872.14
2023-03-06T15:54:11.820Z,99873.70
2023-03-06T15:56:42.590Z,99873.67
2023-03-06T15:59:21.683Z,99875.23
2023-03-06T16:01:50.161Z,99871.25
2023-03-06T16:04:18.810Z,99868.14
2023-03-06T16:06:47.065Z,99867.33
2023-03-06T16:09:15.490Z,99874.23
2023-03-06T16:11:47.512Z,99876.79
2023-03-06T16:14:24.209Z,99874.45
2023-03-06T16:16:54.414Z,99883.70
2023-03-06T16:19:27.418Z,99883.62
2023-03-06T16:21:56.747Z,99884.30
2023-03-06T16:24:26.429Z,99883.63
2023-03-06T16:26:55.087Z,99879.23
2023-03-06T16:29:27.167Z,99878.09
2023-03-06T16:31:56.568Z,99874.54
2023-03-06T16:34:24.742Z,99877.16
2023-03-06T16:36:52.817Z,99877.92
2023-03-06T16:39:22.158Z,99875.85
2023-03-06T16:41:50.279Z,99881.36
2023-03-06T16:44:19.160Z,99880.35
2023-03-06T16:46:48.380Z,99880.48
2023-03-06T16:49:20.700Z,99876.72
2023-03-06T16:51:51.394Z,99878.72
2023-03-06T16:54:20.140Z,99881.30
2023-03-06T16:56:48.261Z,99877.82
2023-03-06T16:59:21.441Z,99877.34
2023-03-06T17:01:49.392Z,99881.31
2023-03-06T17:04:17.409Z,99881.67
2023-03-06T17:06:45.431Z,99880.54
2023-03-06T17:09:15.398Z,99881.81
2023-03-06T17:11:46.903Z,99884.19
2023-03-06T17:14:15.063Z,99888.37
2023-03-06T17:16:43.235Z,99887.02
2023-03-06T17:19:14.530Z,99890.51
2023-03-06T17:21:43.470Z,99888.07
2023-03-06T17:24:11.893Z,99886.60
2023-03-06T17:26:40.390Z,99885.14
2023-03-06T17:29:09.884Z,99887.96
2023-03-06T17:31:37.964Z,99886.91
2023-03-06T17:34:08.057Z,99887.31
2023-03-06T17:36:36.108Z,99887.52
2023-03-06T17:39:04.537Z,99886.54
2023-03-06T17:41:34.316Z,99890.08
2023-03-06T17:44:02.346Z,99889.50
2023-03-06T17:46:32.307Z,99887.29
2023-03-06T17:49:00.781Z,99889.39
2023-03-06T17:51:29.056Z,99884.69
2023-03-06T17:53:57.593Z,99886.15
2023-03-06T17:56:26.118Z,99889.30
2023-03-06T17:58:54.157Z,99883.16
2023-03-06T18:01:23.899Z,99885.61
2023-03-06T18:03:51.950Z,99887.90
2023-03-06T18:06:21.175Z,99886.27
2023-03-06T18:08:52.247Z,99886.06
2023-03-06T18:11:21.178Z,99887.10
2023-03-06T18:13:49.236Z,99885.55
2023-03-06T18:16:19.207Z,99886.77
2023-03-06T18:18:47.481Z,99885.42
2023-03-06T18:21:16.948Z,99884.34
2023-03-06T18:23:45.060Z,99887.95
2023-03-06T18:26:18.854Z,99891.42
2023-03-06T18:28:48.756Z,99893.09
2023-03-06T18:31:21.414Z,99893.87
2023-03-06T18:33:49.588Z,99893.39
2023-03-06T18:36:17.862Z,99894.78
2023-03-06T18:38:46.055Z,99892.39
2023-03-06T18:41:14.107Z,99889.79
2023-03-06T18:43:42.189Z,99895.63
2023-03-06T18:46:11.010Z,99894.59
2023-03-06T18:48:39.112Z,99895.02
2023-03-06T18:51:08.781Z,99897.36
2023-03-06T18:53:37.149Z,99898.05
2023-03-06T18:56:05.494Z,99897.21
2023-03-06T18:58:33.526Z,99897.33
2023-03-06T19:01:06.582Z,99895.83
2023-03-06T19:03:34.808Z,99893.75
2023-03-06T19:06:20.679Z,99894.70
2023-03-06T19:08:48.816Z,99896.20
2023-03-06T19:11:18.162Z,99897.30
2023-03-06T19:13:46.080Z,99898.20
2023-03-06T19:16:18.798Z,99899.98
2023-03-06T19:18:46.927Z,99903.10
2023-03-06T19:21:16.931Z,99904.50
2023-03-06T19:23:45.082Z,99905.86
2023-03-06T19:26:13.082Z,99903.29
2023-03-06T19:28:41.799Z,99906.24
2023-03-06T19:31:14.114Z,99910.52
2023-03-06T19:33:42.900Z,99913.08
2023-03-06T19:36:12.537Z,99913.41
2023-03-06T19:38:40.871Z,99911.83
2023-03-06T19:41:13.887Z,99913.31
2023-03-06T19:43:42.509Z,99915.15
2023-03-06T19:46:14.120Z,99919.86
2023-03-06T19:48:42.619Z,99920.83
2023-03-06T19:51:11.385Z,99926.63
2023-03-06T19:53:39.948Z,99927.98
2023-03-06T19:56:19.382Z,99930.64
2023-03-06T19:58:47.611Z,99931.95
2023-03-06T20:01:17.878Z,99933.42
2023-03-06T20:03:46.467Z,99932.23
2023-03-06T20:06:16.482Z,99932.39
2023-03-06T20:08:50.759Z,99935.58
2023-03-06T20:11:20.787Z,99937.20
2023-03-06T20:13:49.159Z,99935.14
2023-03-06T20:16:17.671Z,99938.42
2023-03-06T20:18:45.776Z,99938.30
2023-03-06T20:21:14.203Z,99937.58
2023-03-06T20:23:42.784Z,99936.15
2023-03-06T20:26:12.831Z,99934.95
2023-03-06T20:28:41.407Z,99928.34
2023-03-06T20:31:16.611Z,99929.92
2023-03-06T20:33:48.989Z,99932.73
2023-03-06T20:36:18.981Z,99926.56
2023-03-06T20:38:47.267Z,99923.84
2023-03-06T20:41:22.665Z,99923.67
2023-03-06T20:43:50.633Z,99922.63
2023-03-06T20:46:19.199Z,99923.27
2023-03-06T20:48:49.140Z,99921.27
2023-03-06T20:51:28.821Z,99925.26
2023-03-06T20:53:57.090Z,99927.09
2023-03-06T20:56:26.830Z,99924.40
2023-03-06T20:58:55.211Z,99924.96
2023-03-06T21:01:25.456Z,99926.20
2023-03-06T21:03:53.763Z,99923.13
2023-03-06T21:06:21.920Z,99920.67
2023-03-06T21:08:50.135Z,99920.13
2023-03-06T21:11:18.505Z,99919.98
2023-03-06T21:13:46.529Z,99917.90
2023-03-06T21:16:16.741Z,99918.22
2023-03-06T21:18:44.846Z,99916.80
2023-03-06T21:21:18.601Z,99915.06
2023-03-06T21:23:47.407Z,99915.43
2023-03-06T21:26:20.190Z,99914.89
2023-03-06T21:28:48.145Z,99919.93
2023-03-06T21:31:17.280Z,99921.30
2023-03-06T21:33:45.516Z,99922.40
2023-03-06T21:36:13.624Z,99920.33
2023-03-06T21:38:41.556Z,99918.47
2023-03-06T21:41:13.719Z,99919.75
2023-03-06T21:43:41.889Z,99920.27
2023-03-06T21:46:10.522Z,99918.29
2023-03-06T21:48:38.626Z,99914.86
2023-03-06T21:51:08.359Z,99915.48
2023-03-06T21:53:36.613Z,99917.51
2023-03-06T21:56:04.963Z,99926.48
2023-03-06T21:58:33.078Z,99920.29
2023-03-06T22:01:01.083Z,99919.23
2023-03-06T22:03:29.124Z,99918.52
2023-03-06T22:05:57.120Z,99916.77
2023-03-06T22:08:25.248Z,99920.11
2023-03-06T22:10:53.619Z,99917.98
2023-03-06T22:13:22.381Z,99919.11
2023-03-06T22:15:51.828Z,99916.27
2023-03-06T22:18:19.787Z,99913.23
2023-03-06T22:20:47.797Z,99912.18
2023-03-06T22:23:15.716Z,99909.55
2023-03-06T22:25:43.796Z,99909.80
2023-03-06T22:28:13.183Z,99910.70
2023-03-06T22:30:41.145Z,99912.25
2023-03-06T22:33:09.105Z,99913.48
2023-03-06T22:35:37.166Z,99908.91
2023-03-06T22:38:05.176Z,99905.33
2023-03-06T22:40:33.160Z,99904.92
2023-03-06T22:43:01.195Z,99901.67
2023-03-06T22:45:29.106Z,99899.27
2023-03-06T22:48:10.157Z,99900.03
2023-03-06T22:50:38.912Z,99899.35
2023-03-06T22:53:06.885Z,99899.85
2023-03-06T22:55:35.239Z,99895.66
2023-03-06T22:58:03.421Z,99899.16
2023-03-06T23:00:31.350Z,99899.04
2023-03-06T23:02:59.326Z,99896.04
2023-03-06T23:05:29.368Z,99896.45
2023-03-06T23:07:57.500Z,99896.01
2023-03-06T23:10:25.554Z,99893.23
2023-03-06T23:13:12.097Z,99891.27
2023-03-06T23:16:02.491Z,99890.96
2023-03-06T23:18:51.004Z,99890.27
2023-03-06T23:21:37.663Z,99895.45
2023-03-06T23:24:24.176Z,99895.13
2023-03-06T23:26:52.169Z,99889.15
2023-03-06T23:29:20.107Z,99891.06
2023-03-06T23:31:48.056Z,99889.61
2023-03-06T23:34:15.987Z,99890.44
2023-03-06T23:36:43.945Z,99890.62
2023-03-06T23:39:12.290Z,99891.69
2023-03-06T23:41:40.685Z,99888.86
2023-03-06T23:44:08.808Z,99890.09
2023-03-06T23:46:36.791Z,99890.51
2023-03-06T23:49:04.933Z,99885.59
2023-03-06T23:51:33.865Z,99885.49
2023-03-06T23:54:01.848Z,99887.05
2023-03-06T23:56:29.965Z,99883.84
2023-03-06T23:58:57.933Z,99881.17
